Time;durP1;ratioP1;P1;durP2;ratioP2;P2;SDS_P1;SDS_P2;PMS_P1;PMS_P2;Temp;Humidity;BMP_temperature;BMP_pressure;BME280_temperature;BME280_humidity;BME280_pressure;Samples;Min_cycle;Max_cycle;Signal;HPM_P1;HPM_P2
2022/11/21 00:01:57;;;;;;;16.43;8.77;;;;;;;-3.37;100.00;99784.78;5022806;28;20560;-71
2022/11/21 00:04:23;;;;;;;17.30;8.63;;;;;;;-3.37;100.00;99777.13;5017998;28;20204;-71
2022/11/21 00:06:50;;;;;;;17.33;8.70;;;;;;;-3.39;100.00;99785.56;5023294;28;20207;-70
2022/11/21 00:09:16;;;;;;;18.60;9.10;;;;;;;-3.37;100.00;99772.03;5026623;28;20214;-72
2022/11/21 00:11:43;;;;;;;21.87;9.20;;;;;;;-3.33;100.00;99760.19;5017631;28;20251;-70
2022/11/21 00:14:09;;;;;;;16.83;8.80;;;;;;;-3.28;100.00;99766.25;5018304;28;20230;-71
2022/11/21 00:16:35;;;;;;;14.30;7.87;;;;;;;-3.27;100.00;99761.16;5015358;28;20196;-71
2022/11/21 00:19:03;;;;;;;16.67;8.67;;;;;;;-3.24;100.00;99761.22;5019912;28;20288;-70
2022/11/21 00:21:29;;;;;;;15.60;8.57;;;;;;;-3.26;100.00;99759.47;4997229;28;20204;-70
2022/11/21 00:23:55;;;;;;;15.40;7.77;;;;;;;-3.21;100.00;99762.94;5017046;28;20211;-71
2022/11/21 00:26:22;;;;;;;14.93;8.57;;;;;;;-3.17;100.00;99761.31;5025645;28;20203;-71
2022/11/21 00:28:48;;;;;;;12.97;7.00;;;;;;;-3.13;100.00;99752.84;5018720;28;20554;-70
2022/11/21 00:31:19;;;;;;;13.40;8.00;;;;;;;-3.10;100.00;99747.81;5022510;28;20423;-72
2022/11/21 00:33:45;;;;;;;15.53;8.20;;;;;;;-3.14;100.00;99741.81;5024316;28;20601;-72
2022/11/21 00:36:13;;;;;;;18.37;9.40;;;;;;;-3.12;100.00;99741.84;5021409;28;20636;-72
2022/11/21 00:38:39;;;;;;;15.70;8.93;;;;;;;-3.10;100.00;99728.25;5020313;28;20653;-71
2022/11/21 00:41:06;;;;;;;16.27;8.57;;;;;;;-3.05;100.00;99725.78;5017487;28;20200;-71
2022/11/21 00:43:32;;;;;;;15.47;7.93;;;;;;;-3.02;100.00;99727.53;5024693;28;20213;-72
2022/11/21 00:46:01;;;;;;;16.00;8.63;;;;;;;-3.05;100.00;99723.22;5001409;28;20208;-71
2022/11/21 00:48:27;;;;;;;14.07;7.30;;;;;;;-2.99;100.00;99723.34;5015933;28;20287;-71
2022/11/21 00:50:54;;;;;;;13.67;7.90;;;;;;;-2.98;100.00;99721.63;5000019;28;20200;-71
2022/11/21 00:53:21;;;;;;;13.30;7.10;;;;;;;-2.94;100.00;99716.56;5018562;28;20223;-71
2022/11/21 00:55:48;;;;;;;15.20;7.73;;;;;;;-2.87;100.00;99720.09;5016219;28;20215;-72
2022/11/21 00:58:15;;;;;;;17.17;8.67;;;;;;;-2.86;100.00;99712.44;5023285;28;20196;-71
2022/11/21 01:00:41;;;;;;;16.63;8.93;;;;;;;-2.86;100.00;99714.16;5020076;28;20279;-71
2022/11/21 01:03:07;;;;;;;19.30;8.23;;;;;;;-2.89;100.00;99709.84;5022209;28;20210;-71
2022/11/21 01:05:34;;;;;;;13.27;6.90;;;;;;;-2.86;100.00;99707.34;5009319;28;20204;-71
2022/11/21 01:08:00;;;;;;;15.10;8.23;;;;;;;-2.82;100.00;99700.59;5016593;28;20200;-72
2022/11/21 01:10:29;;;;;;;17.00;7.83;;;;;;;-2.79;100.00;99698.09;5001514;28;20197;-72
2022/11/21 01:12:55;;;;;;;13.83;8.10;;;;;;;-2.77;100.00;99698.13;5018757;28;20220;-72
2022/11/21 01:15:21;;;;;;;15.00;7.50;;;;;;;-2.76;100.00;99695.59;5016191;28;20192;-71
2022/11/21 01:17:48;;;;;;;13.07;8.00;;;;;;;-2.76;100.00;99694.72;5014704;28;20231;-72
2022/11/21 01:20:14;;;;;;;17.87;8.47;;;;;;;-2.77;100.00;99683.66;5020429;28;20192;-71
2022/11/21 01:22:41;;;;;;;14.73;7.63;;;;;;;-2.75;100.00;99686.22;5026689;28;20708;-71
2022/11/21 01:25:08;;;;;;;14.17;7.30;;;;;;;-2.71;100.00;99681.19;5022035;28;20196;-72
2022/11/21 01:27:35;;;;;;;14.27;7.43;;;;;;;-2.69;100.00;99682.06;5025324;28;20671;-72
2022/11/21 01:30:02;;;;;;;12.47;6.90;;;;;;;-2.67;100.00;99671.88;5028114;28;20698;-72
2022/11/21 01:32:28;;;;;;;14.40;7.40;;;;;;;-2.61;100.00;99665.97;5023888;28;20243;-71
2022/11/21 01:34:55;;;;;;;14.60;7.83;;;;;;;-2.60;100.00;99662.56;5021279;28;20238;-71
2022/11/21 01:37:21;;;;;;;14.37;7.50;;;;;;;-2.59;100.00;99647.28;5013039;28;20815;-72
2022/11/21 01:39:47;;;;;;;13.40;7.07;;;;;;;-2.57;100.00;99637.97;5023697;28;20204;-72
2022/11/21 01:42:14;;;;;;;14.43;7.10;;;;;;;-2.58;100.00;99649.00;5020721;28;20216;-70
2022/11/21 01:44:50;;;;;;;14.40;8.40;;;;;;;-2.56;100.00;99638.81;5026026;28;20192;-71
2022/11/21 01:47:17;;;;;;;12.43;7.30;;;;;;;-2.51;100.00;99632.91;5022164;28;20275;-71
2022/11/21 01:49:45;;;;;;;13.60;6.93;;;;;;;-2.44;100.00;99633.84;5022071;28;20204;-70
2022/11/21 01:52:15;;;;;;;15.17;8.03;;;;;;;-2.40;100.00;99632.19;5023929;28;20226;-71
2022/11/21 01:54:43;;;;;;;12.87;8.10;;;;;;;-2.46;100.00;99625.31;5019912;28;20213;-71
2022/11/21 01:57:14;;;;;;;16.17;7.63;;;;;;;-2.44;100.00;99627.91;5021751;28;20200;-71
2022/11/21 01:59:45;;;;;;;14.93;7.57;;;;;;;-2.43;100.00;99622.78;5016023;28;20616;-70
2022/11/21 02:02:17;;;;;;;11.60;6.80;;;;;;;-2.45;100.00;99627.00;5021310;28;20211;-71
2022/11/21 02:04:44;;;;;;;16.80;7.97;;;;;;;-2.44;100.00;99627.91;5020125;28;20423;-71
2022/11/21 02:07:13;;;;;;;14.23;7.47;;;;;;;-2.39;100.00;99626.22;5024002;28;20203;-72
2022/11/21 02:09:43;;;;;;;13.47;6.80;;;;;;;-2.42;100.00;99621.09;5024939;28;20548;-71
2022/11/21 02:12:14;;;;;;;13.00;7.67;;;;;;;-2.42;100.00;99623.66;5020411;28;20220;-70
2022/11/21 02:14:42;;;;;;;11.53;7.57;;;;;;;-2.40;100.00;99621.97;5015813;28;20228;-70
2022/11/21 02:17:10;;;;;;;17.07;8.33;;;;;;;-2.35;100.00;99622.88;5009234;28;20209;-72
2022/11/21 02:19:46;;;;;;;18.10;8.00;;;;;;;-2.40;100.00;99615.16;5030999;28;20196;-69
2022/11/21 02:22:21;;;;;;;13.93;7.43;;;;;;;-2.47;100.00;99619.34;5018699;28;20700;-71
2022/11/21 02:24:59;;;;;;;13.73;7.33;;;;;;;-2.38;100.00;99620.28;5019159;28;20736;-72
2022/11/21 02:27:25;;;;;;;16.67;8.87;;;;;;;-2.39;100.00;99619.44;5024226;28;20207;-72
2022/11/21 02:29:52;;;;;;;18.17;8.43;;;;;;;-2.36;100.00;99614.34;5017453;28;20255;-71
2022/11/21 02:32:21;;;;;;;15.70;9.03;;;;;;;-2.41;100.00;99618.56;5024943;28;20630;-70
2022/11/21 02:34:47;;;;;;;17.57;9.23;;;;;;;-2.36;100.00;99608.38;5017925;28;20251;-71
2022/11/21 02:37:14;;;;;;;20.17;8.03;;;;;;;-2.32;100.00;99611.00;5021299;28;20513;-72
2022/11/21 02:39:41;;;;;;;18.33;8.87;;;;;;;-2.35;100.00;99603.28;5021421;28;20200;-71
2022/11/21 02:42:14;;;;;;;18.70;8.93;;;;;;;-2.36;100.00;99595.63;5020377;28;20215;-71
2022/11/21 02:44:47;;;;;;;17.57;9.90;;;;;;;-2.38;100.00;99595.59;5024541;28;20196;-72
2022/11/21 02:47:13;;;;;;;14.40;7.93;;;;;;;-2.42;100.00;99588.75;5019507;28;20204;-72
2022/11/21 02:49:46;;;;;;;18.23;8.63;;;;;;;-2.43;100.00;99581.09;5025911;28;20195;-71
2022/11/21 02:52:13;;;;;;;17.63;8.57;;;;;;;-2.48;100.00;99581.91;5022748;28;20220;-72
2022/11/21 02:54:39;;;;;;;14.67;8.47;;;;;;;-2.49;100.00;99572.53;5020520;28;20409;-72
2022/11/21 02:57:05;;;;;;;18.27;8.57;;;;;;;-2.45;100.00;99572.56;5016254;28;20208;-70
2022/11/21 02:59:33;;;;;;;19.47;8.90;;;;;;;-2.47;100.00;99575.09;5020876;28;20208;-72
2022/11/21 03:02:01;;;;;;;17.20;9.57;;;;;;;-2.47;100.00;99575.09;5024224;28;20936;-70
2022/11/21 03:04:27;;;;;;;17.50;9.47;;;;;;;-2.48;100.00;99565.72;5024958;28;20653;-71
2022/11/21 03:06:54;;;;;;;21.97;10.00;;;;;;;-2.51;100.00;99558.91;5027489;28;20616;-72
2022/11/21 03:09:20;;;;;;;17.00;8.80;;;;;;;-2.52;100.00;99557.16;5022579;28;20196;-70
2022/11/21 03:11:46;;;;;;;22.50;10.10;;;;;;;-2.51;100.00;99556.34;5020047;28;20600;-71
2022/11/21 03:14:13;;;;;;;15.67;9.47;;;;;;;-2.48;100.00;99558.06;5020515;28;20220;-71
2022/11/21 03:16:40;;;;;;;15.23;8.77;;;;;;;-2.48;100.00;99548.72;5022758;28;20203;-71
2022/11/21 03:19:07;;;;;;;17.70;10.03;;;;;;;-2.51;100.00;99541.03;5029235;28;20195;-70
2022/11/21 03:21:33;;;;;;;23.40;10.03;;;;;;;-2.50;100.00;99531.66;5027314;28;20196;-71
2022/11/21 03:23:59;;;;;;;16.13;9.27;;;;;;;-2.50;100.00;99539.31;5015069;28;20197;-72
2022/11/21 03:26:26;;;;;;;24.33;11.80;;;;;;;-2.55;100.00;99534.19;5025235;28;20203;-71
2022/11/21 03:28:52;;;;;;;20.90;11.43;;;;;;;-2.57;100.00;99533.31;5016558;28;20681;-72
2022/11/21 03:31:18;;;;;;;19.33;9.93;;;;;;;-2.56;100.00;99532.47;5020268;28;20208;-70
2022/11/21 03:33:46;;;;;;;19.70;10.20;;;;;;;-2.58;100.00;99525.66;5015620;28;20259;-71
2022/11/21 03:36:12;;;;;;;30.73;14.20;;;;;;;-2.54;100.00;99524.81;5019099;28;20196;-70
2022/11/21 03:38:39;;;;;;;26.73;12.37;;;;;;;-2.57;100.00;99515.47;5025995;28;20727;-71
2022/11/21 03:41:28;;;;;;;35.93;19.10;;;;;;;-2.54;100.00;99512.91;5018166;28;20219;-70
2022/11/21 03:43:52;;;;;;;20.73;11.37;;;;;;;-2.52;100.00;99507.81;5032427;28;20196;-69
2022/11/21 03:46:18;;;;;;;23.57;11.63;;;;;;;-2.52;100.00;99497.63;5019178;28;20211;-71
2022/11/21 03:48:46;;;;;;;18.20;10.27;;;;;;;-2.52;100.00;99495.91;5021055;28;20200;-72
2022/11/21 03:51:12;;;;;;;21.27;10.63;;;;;;;-2.53;100.00;99494.22;5025818;28;20204;-70
2022/11/21 03:53:39;;;;;;;23.10;10.57;;;;;;;-2.51;100.00;99489.97;5021649;28;20226;-71
2022/11/21 03:56:05;;;;;;;21.87;11.23;;;;;;;-2.45;100.00;99488.31;5014961;28;20200;-71
2022/11/21 03:58:32;;;;;;;21.83;11.40;;;;;;;-2.44;100.00;99488.34;5024091;28;20303;-69
2022/11/21 04:00:58;;;;;;;24.47;11.53;;;;;;;-2.42;100.00;99486.66;5020483;28;20208;-71
2022/11/21 04:03:24;;;;;;;24.93;12.20;;;;;;;-2.39;100.00;99480.69;5016767;28;20310;-71
2022/11/21 04:05:52;;;;;;;25.40;11.80;;;;;;;-2.41;100.00;99479.84;5020129;28;20211;-71
2022/11/21 04:08:18;;;;;;;24.27;11.87;;;;;;;-2.44;100.00;99479.81;5020759;28;20207;-71
2022/11/21 04:10:46;;;;;;;26.03;11.80;;;;;;;-2.44;100.00;99474.72;5020320;28;20200;-71
2022/11/21 04:13:13;;;;;;;25.40;12.93;;;;;;;-2.41;100.00;99477.28;4997915;28;20216;-71
2022/11/21 04:15:40;;;;;;;25.10;11.90;;;;;;;-2.42;100.00;99483.25;5020578;28;20224;-70
2022/11/21 04:18:07;;;;;;;22.53;11.43;;;;;;;-2.41;100.00;99475.59;5026742;28;20191;-71
2022/11/21 04:20:33;;;;;;;27.13;12.17;;;;;;;-2.39;100.00;99475.59;5010817;28;20207;-71
2022/11/21 04:23:01;;;;;;;23.60;11.30;;;;;;;-2.41;100.00;99475.59;5014502;28;20712;-71
2022/11/21 04:25:27;;;;;;;26.30;12.10;;;;;;;-2.34;100.00;99479.03;5023325;28;20664;-71
2022/11/21 04:27:56;;;;;;;23.20;10.80;;;;;;;-2.38;100.00;99478.16;5025240;28;20565;-71
2022/11/21 04:30:22;;;;;;;24.60;11.60;;;;;;;-2.43;100.00;99481.53;5019546;28;20192;-71
2022/11/21 04:32:50;;;;;;;20.77;11.87;;;;;;;-2.46;100.00;99472.16;5030390;23;20234;-72
2022/11/21 04:35:16;;;;;;;24.90;11.77;;;;;;;-2.51;100.00;99468.69;5022877;28;20208;-73
2022/11/21 04:37:43;;;;;;;22.67;11.27;;;;;;;-2.55;100.00;99470.38;5026355;28;20653;-72
2022/11/21 04:40:12;;;;;;;23.17;11.07;;;;;;;-2.56;100.00;99470.34;5027520;28;20203;-72
2022/11/21 04:42:41;;;;;;;23.57;11.60;;;;;;;-2.56;100.00;99470.34;5022082;28;20227;-73
2022/11/21 04:45:08;;;;;;;25.80;11.97;;;;;;;-2.58;100.00;99462.69;5027446;28;20196;-73
2022/11/21 04:47:36;;;;;;;24.93;11.63;;;;;;;-2.55;100.00;99461.84;5022539;28;20199;-73
2022/11/21 04:50:04;;;;;;;30.00;12.43;;;;;;;-2.57;100.00;99460.97;5026610;28;20200;-73
2022/11/21 04:52:31;;;;;;;23.00;12.33;;;;;;;-2.53;100.00;99462.75;5019070;28;20703;-72
2022/11/21 04:54:57;;;;;;;21.30;11.17;;;;;;;-2.55;100.00;99461.84;5024188;28;20222;-73
2022/11/21 04:57:27;;;;;;;22.63;11.83;;;;;;;-2.55;100.00;99456.75;5023904;28;20204;-72
2022/11/21 04:59:53;;;;;;;24.23;11.73;;;;;;;-2.55;100.00;99447.41;5024219;28;20235;-73
2022/11/21 05:02:20;;;;;;;23.27;10.37;;;;;;;-2.56;100.00;99447.38;5030950;28;20234;-72
2022/11/21 05:04:46;;;;;;;24.87;11.17;;;;;;;-2.53;100.00;99443.16;5032690;28;20212;-73
2022/11/21 05:07:13;;;;;;;24.37;12.20;;;;;;;-2.52;100.00;99447.41;5035319;28;20192;-72
2022/11/21 05:09:39;;;;;;;25.90;12.90;;;;;;;-2.51;100.00;99444.03;5029509;28;20210;-72
2022/11/21 05:14:51;;;;;;;23.87;11.73;;;;;;;-2.52;100.00;99442.31;5023306;28;20576;-73
2022/11/21 05:17:17;;;;;;;23.07;10.60;;;;;;;-2.51;100.00;99443.19;5028800;28;20204;-73
2022/11/21 05:19:44;;;;;;;20.67;11.13;;;;;;;-2.51;100.00;99441.47;5025527;28;20203;-73
2022/11/21 05:22:11;;;;;;;22.87;11.07;;;;;;;-2.51;100.00;99446.56;5026906;28;20220;-73
2022/11/21 05:24:37;;;;;;;26.30;12.17;;;;;;;-2.50;100.00;99450.84;5027814;28;20572;-72
2022/11/21 05:27:04;;;;;;;20.93;10.87;;;;;;;-2.51;100.00;99444.03;5025346;28;20222;-73
2022/11/21 05:29:30;;;;;;;22.17;11.37;;;;;;;-2.52;100.00;99449.13;5026675;28;20208;-73
2022/11/21 05:31:58;;;;;;;22.47;10.53;;;;;;;-2.54;100.00;99441.44;5026586;28;20200;-73
2022/11/21 05:34:24;;;;;;;27.40;11.33;;;;;;;-2.51;100.00;99435.53;5023493;28;20213;-72
2022/11/21 05:36:55;;;;;;;24.50;11.60;;;;;;;-2.49;100.00;99434.69;5027229;28;20203;-73
2022/11/21 05:39:22;;;;;;;22.30;10.13;;;;;;;-2.49;100.00;99437.22;5029050;28;20764;-72
2022/11/21 05:41:48;;;;;;;22.00;11.40;;;;;;;-2.48;100.00;99440.63;5029824;28;20199;-72
2022/11/21 05:44:14;;;;;;;21.10;11.70;;;;;;;-2.50;100.00;99434.66;5027831;28;20203;-73
2022/11/21 05:46:40;;;;;;;25.37;12.87;;;;;;;-2.48;100.00;99440.63;5022077;28;20200;-72
2022/11/21 05:49:08;;;;;;;22.43;11.20;;;;;;;-2.50;100.00;99439.75;5016404;28;20204;-73
2022/11/21 05:51:34;;;;;;;24.23;11.27;;;;;;;-2.49;100.00;99447.44;5023550;28;20211;-72
2022/11/21 05:54:01;;;;;;;22.47;10.83;;;;;;;-2.47;100.00;99452.56;5030102;28;20427;-72
2022/11/21 05:56:28;;;;;;;22.57;11.33;;;;;;;-2.45;100.00;99447.47;5002395;28;20196;-72
2022/11/21 05:58:55;;;;;;;21.73;10.47;;;;;;;-2.47;100.00;99450.84;5007232;28;20263;-73
2022/11/21 06:04:02;;;;;;;23.33;12.30;;;;;;;-2.47;100.00;99450.00;5021340;28;20329;-73
2022/11/21 06:06:29;;;;;;;25.00;12.43;;;;;;;-2.48;100.00;99455.94;5025240;28;20211;-72
2022/11/21 06:08:56;;;;;;;23.70;12.07;;;;;;;-2.47;100.00;99450.84;5019402;28;20211;-72
2022/11/21 06:11:22;;;;;;;24.20;12.07;;;;;;;-2.47;100.00;99448.31;5013423;28;20201;-73
2022/11/21 06:13:48;;;;;;;23.20;12.33;;;;;;;-2.48;100.00;99453.38;5018559;28;20231;-72
2022/11/21 06:16:17;;;;;;;26.40;11.67;;;;;;;-2.52;100.00;99449.97;5020127;28;20230;-72
2022/11/21 06:18:44;;;;;;;22.63;11.03;;;;;;;-2.51;100.00;99445.72;5017412;28;20200;-72
2022/11/21 06:21:13;;;;;;;23.97;12.77;;;;;;;-2.50;100.00;99455.97;5020458;28;20324;-72
2022/11/21 06:23:41;;;;;;;22.93;12.33;;;;;;;-2.49;100.00;99462.75;5021128;28;20216;-73
2022/11/21 06:26:12;;;;;;;20.73;11.33;;;;;;;-2.49;100.00;99467.00;5023700;28;20194;-72
2022/11/21 06:28:40;;;;;;;25.77;12.20;;;;;;;-2.50;100.00;99467.84;5022710;28;20192;-73
2022/11/21 06:31:08;;;;;;;22.77;12.37;;;;;;;-2.48;100.00;99476.38;5024076;28;20196;-72
2022/11/21 06:33:35;;;;;;;24.67;11.80;;;;;;;-2.52;100.00;99478.03;5023977;28;20232;-72
2022/11/21 06:36:03;;;;;;;21.77;9.90;;;;;;;-2.50;100.00;99473.81;5020774;28;20272;-72
2022/11/21 06:38:29;;;;;;;22.87;10.63;;;;;;;-2.48;100.00;99482.34;5030886;28;20199;-73
2022/11/21 06:40:57;;;;;;;27.07;12.83;;;;;;;-2.45;100.00;99485.75;5026710;28;20208;-72
2022/11/21 06:43:23;;;;;;;24.10;12.67;;;;;;;-2.49;100.00;99498.50;5024771;28;20224;-72
2022/11/21 06:45:49;;;;;;;22.20;12.37;;;;;;;-2.48;100.00;99492.56;5025909;28;20204;-72
2022/11/21 06:48:16;;;;;;;22.20;11.93;;;;;;;-2.47;100.00;99494.25;5024557;28;20200;-72
2022/11/21 06:50:42;;;;;;;25.07;12.90;;;;;;;-2.48;100.00;99500.22;5016117;28;20204;-72
2022/11/21 06:53:08;;;;;;;25.43;12.57;;;;;;;-2.52;100.00;99503.56;5029459;28;20219;-72
2022/11/21 06:55:35;;;;;;;26.30;13.23;;;;;;;-2.53;100.00;99504.44;5019725;28;20595;-72
2022/11/21 06:58:02;;;;;;;23.30;12.77;;;;;;;-2.53;100.00;99518.91;5017644;28;20201;-71
2022/11/21 07:00:29;;;;;;;28.07;12.47;;;;;;;-2.50;100.00;99526.56;5026586;28;20643;-73
2022/11/21 07:03:00;;;;;;;26.83;12.73;;;;;;;-2.55;100.00;99529.09;5013254;28;20231;-72
2022/11/21 07:05:26;;;;;;;25.77;12.33;;;;;;;-2.59;100.00;99527.31;5017773;28;20196;-72
2022/11/21 07:07:57;;;;;;;25.10;11.27;;;;;;;-2.57;100.00;99529.91;5024750;28;20223;-73
2022/11/21 07:10:24;;;;;;;26.40;12.43;;;;;;;-2.60;100.00;99529.84;5025373;28;20196;-73
2022/11/21 07:15:35;;;;;;;21.33;11.20;;;;;;;-2.62;100.00;99541.75;5025844;28;20208;-72
2022/11/21 07:18:02;;;;;;;21.57;11.43;;;;;;;-2.67;100.00;99541.72;5021037;28;20208;-72
2022/11/21 07:20:28;;;;;;;24.83;11.73;;;;;;;-2.67;100.00;99549.38;5022814;28;20212;-72
2022/11/21 07:22:55;;;;;;;27.03;12.07;;;;;;;-2.69;100.00;99543.38;5019443;28;20224;-72
2022/11/21 07:25:22;;;;;;;26.13;10.93;;;;;;;-2.69;100.00;99548.47;5022462;28;20200;-73
2022/11/21 07:27:48;;;;;;;19.80;10.17;;;;;;;-2.67;100.00;99557.88;5022021;28;20196;-72
2022/11/21 07:30:15;;;;;;;21.70;10.23;;;;;;;-2.74;100.00;99553.56;5026209;28;20557;-72
2022/11/21 07:32:42;;;;;;;20.90;10.37;;;;;;;-2.71;100.00;99553.59;5022360;28;20303;-72
2022/11/21 07:35:09;;;;;;;19.10;9.63;;;;;;;-2.71;100.00;99561.25;5026409;28;20277;-73
2022/11/21 07:37:38;;;;;;;19.43;9.80;;;;;;;-2.67;100.00;99568.09;5021435;28;20204;-73
2022/11/21 07:40:06;;;;;;;24.27;10.63;;;;;;;-2.67;100.00;99565.53;5026767;28;20538;-73
2022/11/21 07:42:32;;;;;;;19.60;10.80;;;;;;;-2.66;100.00;99579.16;5025596;28;20592;-72
2022/11/21 07:44:59;;;;;;;21.73;9.90;;;;;;;-2.65;100.00;99580.88;5023735;28;20491;-72
2022/11/21 07:47:25;;;;;;;22.40;9.60;;;;;;;-2.71;100.00;99591.88;5024217;28;20246;-73
2022/11/21 07:49:53;;;;;;;21.20;9.80;;;;;;;-2.65;100.00;99587.69;5025909;28;20448;-72
2022/11/21 07:52:19;;;;;;;24.57;11.60;;;;;;;-2.67;100.00;99601.28;5025179;28;20220;-72
2022/11/21 07:54:45;;;;;;;17.97;10.60;;;;;;;-2.60;100.00;99602.19;5021301;28;20576;-72
2022/11/21 07:57:12;;;;;;;22.83;10.67;;;;;;;-2.55;100.00;99609.88;5023461;28;20211;-73
2022/11/21 07:59:38;;;;;;;21.33;11.00;;;;;;;-2.58;100.00;99614.97;5026449;28;20200;-72
2022/11/21 08:02:05;;;;;;;25.03;11.47;;;;;;;-2.54;100.00;99617.56;5027346;28;20212;-72
2022/11/21 08:04:31;;;;;;;19.97;10.10;;;;;;;-2.51;100.00;99622.72;5023913;28;20210;-72
2022/11/21 08:06:58;;;;;;;20.70;9.87;;;;;;;-2.44;100.00;99613.44;5022962;28;20208;-73
2022/11/21 08:09:27;;;;;;;20.80;10.13;;;;;;;-2.48;100.00;99622.75;5022603;28;20210;-73
2022/11/21 08:11:54;;;;;;;20.87;10.27;;;;;;;-2.39;100.00;99628.78;5024761;28;20196;-72
2022/11/21 08:14:20;;;;;;;18.10;10.27;;;;;;;-2.41;100.00;99633.88;5024580;28;20204;-72
2022/11/21 08:16:47;;;;;;;21.47;10.57;;;;;;;-2.42;100.00;99637.28;5023275;28;20696;-72
2022/11/21 08:19:13;;;;;;;22.70;11.10;;;;;;;-2.29;100.00;99643.34;5023260;28;20207;-72
2022/11/21 08:21:39;;;;;;;21.33;10.93;;;;;;;-2.30;100.00;99634.00;5024067;28;20207;-73
2022/11/21 08:24:12;;;;;;;17.10;9.73;;;;;;;-2.28;100.00;99647.63;5021924;28;20220;-73
2022/11/21 08:26:38;;;;;;;20.40;10.27;;;;;;;-2.26;100.00;99653.59;5021617;28;20192;-73
2022/11/21 08:29:05;;;;;;;24.43;10.87;;;;;;;-2.29;100.00;99651.00;5023535;28;20600;-72
2022/11/21 08:31:31;;;;;;;18.17;10.27;;;;;;;-2.25;100.00;99650.22;5028794;28;20202;-72
2022/11/21 08:33:58;;;;;;;22.67;11.37;;;;;;;-2.22;100.00;99660.44;5024391;28;20701;-75
2022/11/21 08:36:24;;;;;;;22.20;11.40;;;;;;;-2.17;100.00;99665.63;5029261;28;20633;-75
2022/11/21 08:38:51;;;;;;;22.17;10.80;;;;;;;-2.11;100.00;99660.56;5028150;28;20205;-74
2022/11/21 08:44:04;;;;;;;25.10;11.70;;;;;;;-2.01;100.00;99664.91;5028664;28;20243;-74
2022/11/21 08:46:32;;;;;;;22.37;11.33;;;;;;;-1.98;100.00;99670.06;5025018;28;20234;-74
2022/11/21 08:48:59;;;;;;;22.03;11.90;;;;;;;-1.98;100.00;99674.31;5025827;28;20206;-74
2022/11/21 08:51:25;;;;;;;22.50;11.67;;;;;;;-1.92;100.00;99671.81;5031659;28;20200;-72
2022/11/21 08:53:51;;;;;;;20.63;10.83;;;;;;;-1.89;100.00;99684.63;5029240;28;20226;-74
2022/11/21 08:56:19;;;;;;;22.37;11.40;;;;;;;-1.94;100.00;99684.56;5024846;28;20220;-73
2022/11/21 08:58:45;;;;;;;24.67;12.60;;;;;;;-1.86;100.00;99694.88;5023961;28;20200;-73
2022/11/21 09:01:12;;;;;;;25.23;11.80;;;;;;;-1.83;100.00;99696.59;5029234;28;20211;-73
2022/11/21 09:03:38;;;;;;;23.93;11.33;;;;;;;-1.87;100.00;99693.16;5031969;28;20220;-74
2022/11/21 09:06:05;;;;;;;21.70;11.63;;;;;;;-1.69;100.00;99699.28;5026692;28;20258;-73
2022/11/21 09:08:32;;;;;;;20.77;10.90;;;;;;;-1.62;100.00;99706.16;5021826;28;20203;-73
2022/11/21 09:11:02;;;;;;;18.87;11.00;;;;;;;-1.60;100.00;99701.91;5028958;28;20607;-73
2022/11/21 09:13:30;;;;;;;21.97;12.03;;;;;;;-1.58;100.00;99710.47;5026217;28;20231;-73
2022/11/21 09:18:42;;;;;;;21.47;10.80;;;;;;;-1.68;100.00;99716.34;5025874;28;20262;-73
2022/11/21 09:21:08;;;;;;;23.20;11.50;;;;;;;-1.66;100.00;99717.19;5025108;28;20307;-73
2022/11/21 09:23:34;;;;;;;23.23;11.37;;;;;;;-1.69;100.00;99722.28;5023099;28;20219;-74
2022/11/21 09:26:01;;;;;;;21.97;11.20;;;;;;;-1.65;100.00;99724.00;5023718;28;20203;-73
2022/11/21 09:28:27;;;;;;;19.37;10.73;;;;;;;-1.58;100.00;99711.31;5030507;28;20203;-73
2022/11/21 09:30:55;;;;;;;19.47;11.57;;;;;;;-1.50;100.00;99718.19;5023304;28;20204;-74
2022/11/21 09:33:21;;;;;;;20.07;10.73;;;;;;;-1.53;100.00;99713.88;5027501;28;20235;-73
2022/11/21 09:35:48;;;;;;;23.77;11.47;;;;;;;-1.39;100.00;99714.00;5024210;28;20223;-73
2022/11/21 09:38:14;;;;;;;21.90;12.07;;;;;;;-1.30;100.00;99721.78;5021961;28;20208;-74
2022/11/21 09:40:44;;;;;;;26.63;12.57;;;;;;;-1.28;100.00;99720.06;5025050;28;20295;-74
2022/11/21 09:43:26;;;;;;;74.53;27.10;;;;;;;-1.27;100.00;99720.94;5028825;28;20224;-73
2022/11/21 09:45:59;;;;;;;29.70;13.73;;;;;;;-1.20;100.00;99736.31;5023294;28;20228;-73
2022/11/21 09:48:31;;;;;;;24.17;12.73;;;;;;;-1.01;100.00;99739.88;5024814;28;21102;-73
2022/11/21 09:51:02;;;;;;;24.67;12.40;;;;;;;-0.88;100.00;99745.06;5026275;28;20200;-74
2022/11/21 09:53:33;;;;;;;23.73;12.70;;;;;;;-0.74;100.00;99750.28;5028948;28;20208;-73
2022/11/21 09:56:06;;;;;;;25.07;12.67;;;;;;;-0.64;100.00;99747.78;5025795;28;20215;-73
2022/11/21 09:58:37;;;;;;;31.97;15.63;;;;;;;-0.66;100.00;99752.03;5027686;28;20549;-72
2022/11/21 10:01:05;;;;;;;26.87;14.50;;;;;;;-0.66;100.00;99748.63;5027194;28;20580;-73
2022/11/21 10:03:36;;;;;;;23.83;12.97;;;;;;;-0.66;100.00;99749.47;5025523;28;20223;-73
2022/11/21 10:06:11;;;;;;;25.97;13.93;;;;;;;-0.63;100.00;99754.63;5026100;28;20213;-73
2022/11/21 10:08:47;;;;;;;24.77;12.80;;;;;;;-0.65;100.00;99761.44;5021650;28;20205;-73
2022/11/21 10:11:21;;;;;;;23.97;12.77;;;;;;;-0.60;100.00;99756.31;5024514;28;20200;-73
2022/11/21 10:14:02;;;;;;;28.23;15.07;;;;;;;-0.63;100.00;99762.31;5024313;28;20215;-73
2022/11/21 10:16:40;;;;;;;25.27;12.43;;;;;;;-0.62;100.00;99763.16;5022175;28;20219;-73
2022/11/21 10:19:23;;;;;;;24.33;12.47;;;;;;;-0.60;100.00;99771.69;5031789;28;20200;-73
2022/11/21 10:22:07;;;;;;;20.57;12.03;;;;;;;-0.43;100.00;99767.50;5020931;28;20291;-73
2022/11/21 10:24:43;;;;;;;22.23;11.13;;;;;;;-0.29;100.00;99775.25;5023413;28;20207;-73
2022/11/21 10:27:15;;;;;;;20.40;12.57;;;;;;;-0.18;100.00;99772.75;5023141;28;20516;-73
2022/11/21 10:29:49;;;;;;;21.67;12.03;;;;;;;-0.13;100.00;99777.91;5021991;28;20261;-73
2022/11/21 10:32:32;;;;;;;18.60;10.60;;;;;;;-0.17;100.00;99784.72;5025922;28;20514;-74
2022/11/21 10:35:04;;;;;;;21.47;11.03;;;;;;;-0.28;100.00;99787.25;4975106;28;20217;-69
2022/11/21 10:37:36;;;;;;;18.70;9.83;;;;;;;-0.34;100.00;99787.19;4976316;28;20223;-69
2022/11/21 10:40:15;;;;;;;21.50;13.10;;;;;;;-0.14;100.00;99784.75;4976514;28;20295;-69
2022/11/21 10:42:48;;;;;;;19.47;9.37;;;;;;;-0.30;100.00;99788.06;4977064;28;20235;-70
2022/11/21 10:45:18;;;;;;;14.53;8.37;;;;;;;-0.28;100.00;99786.34;4994318;28;20229;-69
2022/11/21 10:47:49;;;;;;;12.27;7.40;;;;;;;-0.31;100.00;99792.34;4990646;28;20259;-69
2022/11/21 10:50:43;;;;;;;12.80;7.30;;;;;;;-0.25;100.00;99792.34;4993929;28;20196;-69
2022/11/21 10:56:04;;;;;;;10.77;6.50;;;;;;;-0.18;100.00;99802.66;4994829;28;20270;-69
2022/11/21 10:58:39;;;;;;;12.40;7.33;;;;;;;-0.22;100.00;99806.91;4994222;28;20649;-69
2022/11/21 11:01:06;;;;;;;11.13;7.60;;;;;;;-0.25;100.00;99806.88;4997262;28;20216;-69
2022/11/21 11:03:34;;;;;;;12.57;6.47;;;;;;;-0.24;100.00;99801.75;4997964;28;20243;-69
2022/11/21 11:06:00;;;;;;;9.37;5.40;;;;;;;-0.23;100.00;99802.59;4994230;28;20207;-70
2022/11/21 11:08:27;;;;;;;11.50;6.50;;;;;;;-0.25;100.00;99807.72;4996620;28;20201;-70
2022/11/21 11:11:06;;;;;;;12.10;6.07;;;;;;;-0.22;100.00;99807.75;4994142;28;20220;-70
2022/11/21 11:13:52;;;;;;;9.07;5.63;;;;;;;-0.25;100.00;99805.16;4991879;28;20224;-69
2022/11/21 11:16:21;;;;;;;9.97;5.97;;;;;;;-0.23;100.00;99807.72;4993065;28;20224;-70
2022/11/21 11:18:56;;;;;;;12.13;6.07;;;;;;;-0.18;100.00;99800.09;4996807;28;20415;-69
2022/11/21 11:21:24;;;;;;;8.53;5.37;;;;;;;-0.17;100.00;99804.38;4992352;28;20200;-70
2022/11/21 11:23:53;;;;;;;9.37;6.40;;;;;;;-0.22;100.00;99806.91;4999701;28;20610;-69
2022/11/21 11:26:26;;;;;;;10.97;6.13;;;;;;;-0.27;100.00;99806.00;4986719;28;20568;-69
2022/11/21 11:28:54;;;;;;;14.83;6.90;;;;;;;-0.22;100.00;99815.44;4995875;28;20216;-70
2022/11/21 11:31:21;;;;;;;11.87;6.20;;;;;;;-0.20;100.00;99811.16;4995071;28;20471;-69
2022/11/21 11:33:55;;;;;;;11.33;6.73;;;;;;;-0.25;100.00;99817.97;4993760;28;20417;-70